Elkhorn, WV

1:27 AM EDT on October 24, 2019 (GMT -0400)
Matoaka Connor Mountain | | Change Station
Active Advisory: Frost Advisory

Elev 2457 ft 37.41 °N, 81.28 °W | Updated 9 seconds ago

Clear
Clear
35.8 °F
Feels Like 36 °F
N
2.2
Wind Variable Wind from East
Gusts 0.0 mph

Today
High -- | Low -- °F
--% Chance of Precip.
Yesterday
High -- | Low -- °F
Precip. -- in
Pressure 30.25 in
Visibility 10.0 miles
Clouds Clear
Windchill 36 °F
Dew Point 33 °F
Humidity 91%
Rainfall 0.00 in
Snow Depth Not available.
7:42 AM 6:37 PM
Waning Crescent, 21% visible
METAR KBLF 240452Z AUTO 00000KT 10SM CLR 06/M03 A3026 RMK AO2 SLP242 T00611028 401280033
Pressure 30.25 in
Visibility 10.0 miles
Clouds Clear
Windchill 36 °F
Dew Point 33 °F
Humidity 91%
Rainfall 0.00 in
Snow Depth Not available.
7:42 AM 6:37 PM
Waning Crescent, 21% visible
METAR KBLF 240452Z AUTO 00000KT 10SM CLR 06/M03 A3026 RMK AO2 SLP242 T00611028 401280033

Get Your Daily Forecast Email!

Thanks for signing up!

Be on the lookout for a verification email in your inbox.

You'll start receiving severe weather alerts in your inbox..

×

10-Day Weather Forecast

Almanac

Astronomy

Oct. 24, 2019 Rise Set
Actual Time
Civil Twilight
Nautical Twilight
Astronomical Twilight
Moon
Length of Visible Light
Length of Day
Tomorrow will be .
, % of the Moon is Illuminated

Today's Extremes

State Highs State Lows

Community

WunderPhotos

Category 6

Welcome to Category 6. This is the collective home for Weather Underground's featured writeups by Dr. Jeff Masters (right), Bob Henson (left), Chris Burt, and other regular contributors.

Nearby

Air Quality

  Air Quality AQ Index Pollutant
Not available.

Snow Depth

Station Depth Elevation

Earthquake Activity

City Distance Mag. Time & Date
Minimum magnitude displayed is 2.5.

Coastal Water Temperatures

Place Temperature

Stations

Nearby Weather Stations

Station Location Temp. Windchill Dew Point Humidity Wind Precip. Elev Updated Type
                   

Watches & Warnings

Frost Advisory
Issued: 10:16 PM EDT Oct. 23, 2019 – National Weather Service

... Frost advisory remains in effect until 9 am EDT Thursday...

* what... temperatures in the low to mid 30s will result in frost
formation.

* Where... portions of West Virginia, northeast Kentucky, and
southwest Virginia.

* When... from midnight tonight to 9 am EDT Thursday.

* Impacts... frost could kill sensitive outdoor vegetation if
left uncovered.

* Additional details... frost will mainly be in the valleys.

Precautionary/preparedness actions...

Take steps now to protect tender plants from the cold.